Bushmills, United Kingdom
Current Conditions -  °F | °C
As of 6:20 PM on Sunday 25 Jan 2015 (Local Time) from EGAE Reporting Station
Moderate Rain Moderate Rain  
Wind Chill: 50°   Ceiling: 1200
Heat Index: 50°   Visibility: 4mi
Dew Point: 48°   Wind: 20mph
Humidity: 94%   Direction: 250°WSW
Pressure: 30.03"   Gusts: NA
Location:  55.2°N, 6.52°W
Report Text: EGAE 251820Z 25017KT 7000 RA SCT006 BKN012 OVC025 10/09 Q1017
Loading
Personal Weather Stations






























Interactive Weather Map New forecast layout! Learn more

10-Day Weather Forecast

Advertisements
Track Severe Weather on mobile